Sun Day — WDC8625 — position and weather

sailwx.info

Track history (hours):
 
Tides and Currents Weather Stations Pressure Air Temp Water Temp Dewpoint Dewpoint Depression Visibility Wind Speed Wind Dir Waves Ship Positions

Sun Day

Owner: Y&S Marine, Inc., Belle Chasse, LA. More information available from US FCC via Universal Licensing System and Coast Guard Vessel Documentation Center.

Last reported at 2017-Sep-20 08:45 UTC. Time now 2017-Sep-20 18:31 UTC.
Position N 29°39' W 092°02'.

Length 33 m; draft 2 m.

MMSI: 367090390.

Date/timePositionNaut miles runAvg speedWind from/ knotsBaromVisibWave heightAir tempDewpointWater temp
2017-Sep-20 08:45N 29°39' W 092°02'417.6
2017-Sep-20 08:30N 29°43' W 092°05'611.2
2017-Sep-20 08:00N 29°48' W 092°09'0 0.0
2017-Sep-20 07:30N 29°48' W 092°09'0 0.0
2017-Sep-20 07:00N 29°48' W 092°09'0 0.0
2017-Sep-20 06:30N 29°48' W 092°09'0 0.1
2017-Sep-20 06:00N 29°48' W 092°09'2 4.5
2017-Sep-20 05:30N 29°47' W 092°11'0 0.0
2017-Sep-20 05:00N 29°47' W 092°11'1 2.7
2017-Sep-20 04:30N 29°47' W 092°09'1 1.9
2017-Sep-20 04:01N 29°48' W 092°09'0 0.0
2017-Sep-20 03:30N 29°48' W 092°09'0 0.1
2017-Sep-20 03:00N 29°47' W 092°09'0 0.0
2017-Sep-20 02:30N 29°47' W 092°09'0 0.0
2017-Sep-20 02:00N 29°47' W 092°09'0 0.0
2017-Sep-20 01:30N 29°47' W 092°09'3 6.5
2017-Sep-20 01:00N 29°45' W 092°07'8 0.5
2017-Sep-19 08:38N 29°39' W 092°02'318.8
2017-Sep-19 08:29N 29°41' W 092°04'816.3
2017-Sep-19 08:00N 29°47' W 092°09'0 0.0
2017-Sep-19 07:30N 29°48' W 092°09'0 0.0
2017-Sep-19 07:00N 29°48' W 092°09'0 0.0
2017-Sep-19 06:30N 29°48' W 092°09'0 0.0
2017-Sep-19 06:00N 29°48' W 092°09'0 0.0
2017-Sep-19 05:30N 29°48' W 092°09'0 0.0
2017-Sep-19 05:00N 29°48' W 092°09'0 0.0
2017-Sep-19 04:30N 29°48' W 092°09'0 0.0
2017-Sep-19 04:00N 29°48' W 092°09'0 0.0
2017-Sep-19 03:30N 29°48' W 092°09'0 0.1
2017-Sep-19 03:00N 29°48' W 092°09'0 0.0
2017-Sep-19 02:30N 29°48' W 092°09'510.8
2017-Sep-19 02:00N 29°43' W 092°05'2 0.1
2017-Sep-18 06:55N 29°41' W 092°04'718.5
2017-Sep-18 06:30N 29°47' W 092°09'2 3.9
2017-Sep-18 06:00N 29°47' W 092°11'0 0.6
2017-Sep-18 05:30N 29°47' W 092°11'2 4.0
2017-Sep-18 05:00N 29°48' W 092°09'0 0.1
2017-Sep-18 04:30N 29°48' W 092°09'0 0.0
2017-Sep-18 04:00N 29°48' W 092°09'0 0.0
2017-Sep-18 03:30N 29°48' W 092°09'3 5.5
2017-Sep-18 03:00N 29°45' W 092°07'5 0.3
2017-Sep-17 08:37N 29°41' W 092°04'219.0
2017-Sep-17 08:30N 29°43' W 092°05'611.3
2017-Sep-17 08:01N 29°48' W 092°09'0 0.0
2017-Sep-17 07:31N 29°48' W 092°09'0 0.0
2017-Sep-17 07:01N 29°48' W 092°09'0 0.0
2017-Sep-17 06:31N 29°48' W 092°09'0 0.0
2017-Sep-17 06:01N 29°48' W 092°09'0 0.0
2017-Sep-17 05:30N 29°48' W 092°09'0 0.0
2017-Sep-17 04:59N 29°48' W 092°09'0 0.0
2017-Sep-17 04:31N 29°48' W 092°09'0 0.0
2017-Sep-17 04:01N 29°48' W 092°09'0 0.0
2017-Sep-17 03:31N 29°48' W 092°09'0 0.0
2017-Sep-17 03:01N 29°48' W 092°09'0 0.0
2017-Sep-17 02:30N 29°48' W 092°09'0 0.0
2017-Sep-17 02:01N 29°48' W 092°09'0 0.0
2017-Sep-17 01:31N 29°48' W 092°09'0 0.0
2017-Sep-17 01:01N 29°48' W 092°09'0 0.0
2017-Sep-17 00:31N 29°48' W 092°09'0 0.0
2017-Sep-17 00:01N 29°48' W 092°09'0 0.1
2017-Sep-16 23:31N 29°48' W 092°09'0 0.0
2017-Sep-16 23:01N 29°48' W 092°09'0 0.0
2017-Sep-16 22:31N 29°48' W 092°09'4 8.3
2017-Sep-16 22:00N 29°44' W 092°06'2 0.1
2017-Sep-15 17:30N 29°42' W 092°05'0 0.0
2017-Sep-15 03:40N 29°43' W 092°05'316.4
2017-Sep-15 03:30N 29°45' W 092°07'4 7.8
2017-Sep-15 03:00N 29°47' W 092°11'0 0.5
2017-Sep-15 02:30N 29°47' W 092°11'2 3.9
2017-Sep-15 02:00N 29°48' W 092°09'0 0.0
2017-Sep-15 01:30N 29°48' W 092°09'0 0.6
2017-Sep-15 01:00N 29°47' W 092°09'10 0.6
2017-Sep-14 08:44N 29°39' W 092°02'519.5
2017-Sep-14 08:30N 29°42' W 092°05'611.9
2017-Sep-14 08:00N 29°48' W 092°09'0 0.0
2017-Sep-14 07:30N 29°48' W 092°09'0 0.0
2017-Sep-14 07:00N 29°48' W 092°09'0 0.0
2017-Sep-14 06:30N 29°48' W 092°09'0 0.0
2017-Sep-14 06:00N 29°48' W 092°09'0 0.0
2017-Sep-14 05:30N 29°48' W 092°09'0 0.0
2017-Sep-14 05:00N 29°48' W 092°09'0 0.0
2017-Sep-14 04:30N 29°48' W 092°09'0 0.1
2017-Sep-14 04:00N 29°48' W 092°09'0 0.0
2017-Sep-14 03:30N 29°48' W 092°09'0 0.0
2017-Sep-14 03:00N 29°48' W 092°09'0 0.1
2017-Sep-14 02:31N 29°48' W 092°09'4 8.0
2017-Sep-14 02:00N 29°44' W 092°06'7 0.7
2017-Sep-13 16:58N 29°39' W 092°02'818.1
2017-Sep-13 16:30N 29°45' W 092°07'3 6.7
2017-Sep-13 16:00N 29°47' W 092°11'0 0.0
2017-Sep-13 15:30N 29°47' W 092°11'0 0.2
2017-Sep-13 15:00N 29°47' W 092°11'2 4.3
2017-Sep-13 14:30N 29°47' W 092°09'0 0.0
2017-Sep-13 14:00N 29°47' W 092°09'510.8
2017-Sep-13 13:31N 29°43' W 092°05'6 1.2
2017-Sep-13 08:30N 29°38' W 092°01'1019.6
2017-Sep-13 08:00N 29°46' W 092°08'1 2.9
2017-Sep-13 07:30N 29°48' W 092°09'0 0.0
2017-Sep-13 07:00N 29°48' W 092°09'0 0.0
2017-Sep-13 06:30N 29°48' W 092°09'0 0.0
2017-Sep-13 06:00N 29°48' W 092°09'0 0.0
2017-Sep-13 05:30N 29°48' W 092°09'0 0.0
2017-Sep-13 05:00N 29°48' W 092°09'0 0.0
2017-Sep-13 04:30N 29°48' W 092°09'0 0.0
2017-Sep-13 04:00N 29°48' W 092°09'0 0.0
2017-Sep-13 03:30N 29°48' W 092°09'0 0.0
2017-Sep-13 03:00N 29°48' W 092°09'0 0.0
2017-Sep-13 02:30N 29°48' W 092°09'0 0.0
2017-Sep-13 02:00N 29°48' W 092°09'0 0.1
2017-Sep-13 01:30N 29°48' W 092°09'511.1
2017-Sep-13 01:00N 29°43' W 092°05'8 0.2
2017-Sep-11 08:53N 29°37' W 092°00'819.3
2017-Sep-11 08:29N 29°43' W 092°05'511.4
2017-Sep-11 08:01N 29°48' W 092°09'0 0.0
2017-Sep-11 07:29N 29°48' W 092°09'0 0.0
2017-Sep-11 06:57N 29°48' W 092°09'0 0.0
2017-Sep-11 06:30N 29°48' W 092°09'0 0.0
2017-Sep-11 05:57N 29°48' W 092°09'0 0.0
2017-Sep-11 05:29N 29°48' W 092°09'0 0.0
2017-Sep-11 05:01N 29°48' W 092°09'0 0.0
2017-Sep-11 04:28N 29°48' W 092°09'0 0.0
2017-Sep-11 04:00N 29°48' W 092°09'0 0.0
2017-Sep-11 03:30N 29°48' W 092°09'0 0.0
2017-Sep-11 02:56N 29°48' W 092°09'0 0.0
2017-Sep-11 02:30N 29°48' W 092°09'0 0.0
2017-Sep-11 01:57N 29°48' W 092°09'0 0.0
2017-Sep-11 01:30N 29°48' W 092°09'0 0.0
2017-Sep-11 01:01N 29°48' W 092°09'0 0.0
2017-Sep-11 00:30N 29°48' W 092°09'0 0.0
2017-Sep-11 00:00N 29°48' W 092°09'1 1.0
2017-Sep-10 23:30N 29°47' W 092°09'  
Track history (hours):
 
Tides and Currents Weather Stations Pressure Air Temp Water Temp Dewpoint Dewpoint Depression Visibility Wind Speed Wind Dir Waves Ship Positions

Sun Day

Owner: Y&S Marine, Inc., Belle Chasse, LA. More information available from US FCC via Universal Licensing System and Coast Guard Vessel Documentation Center.

Last reported at 2017-Sep-20 08:45 UTC. Time now 2017-Sep-20 18:31 UTC.
Position N 29°39' W 092°02'.

Length 33 m; draft 2 m.

MMSI: 367090390.

Date/timePositionNaut miles runAvg speedWind from/ knotsBaromVisibWave heightAir tempDewpointWater temp
2017-Sep-20 08:45N 29°39' W 092°02'417.6
2017-Sep-20 08:30N 29°43' W 092°05'611.2
2017-Sep-20 08:00N 29°48' W 092°09'0 0.0
2017-Sep-20 07:30N 29°48' W 092°09'0 0.0
2017-Sep-20 07:00N 29°48' W 092°09'0 0.0
2017-Sep-20 06:30N 29°48' W 092°09'0 0.1
2017-Sep-20 06:00N 29°48' W 092°09'2 4.5
2017-Sep-20 05:30N 29°47' W 092°11'0 0.0
2017-Sep-20 05:00N 29°47' W 092°11'1 2.7
2017-Sep-20 04:30N 29°47' W 092°09'1 1.9
2017-Sep-20 04:01N 29°48' W 092°09'0 0.0
2017-Sep-20 03:30N 29°48' W 092°09'0 0.1
2017-Sep-20 03:00N 29°47' W 092°09'0 0.0
2017-Sep-20 02:30N 29°47' W 092°09'0 0.0
2017-Sep-20 02:00N 29°47' W 092°09'0 0.0
2017-Sep-20 01:30N 29°47' W 092°09'3 6.5
2017-Sep-20 01:00N 29°45' W 092°07'8 0.5
2017-Sep-19 08:38N 29°39' W 092°02'318.8
2017-Sep-19 08:29N 29°41' W 092°04'816.3
2017-Sep-19 08:00N 29°47' W 092°09'0 0.0
2017-Sep-19 07:30N 29°48' W 092°09'0 0.0
2017-Sep-19 07:00N 29°48' W 092°09'0 0.0
2017-Sep-19 06:30N 29°48' W 092°09'0 0.0
2017-Sep-19 06:00N 29°48' W 092°09'0 0.0
2017-Sep-19 05:30N 29°48' W 092°09'0 0.0
2017-Sep-19 05:00N 29°48' W 092°09'0 0.0
2017-Sep-19 04:30N 29°48' W 092°09'0 0.0
2017-Sep-19 04:00N 29°48' W 092°09'0 0.0
2017-Sep-19 03:30N 29°48' W 092°09'0 0.1
2017-Sep-19 03:00N 29°48' W 092°09'0 0.0
2017-Sep-19 02:30N 29°48' W 092°09'510.8
2017-Sep-19 02:00N 29°43' W 092°05'2 0.1
2017-Sep-18 06:55N 29°41' W 092°04'718.5
2017-Sep-18 06:30N 29°47' W 092°09'2 3.9
2017-Sep-18 06:00N 29°47' W 092°11'0 0.6
2017-Sep-18 05:30N 29°47' W 092°11'2 4.0
2017-Sep-18 05:00N 29°48' W 092°09'0 0.1
2017-Sep-18 04:30N 29°48' W 092°09'0 0.0
2017-Sep-18 04:00N 29°48' W 092°09'0 0.0
2017-Sep-18 03:30N 29°48' W 092°09'3 5.5
2017-Sep-18 03:00N 29°45' W 092°07'5 0.3
2017-Sep-17 08:37N 29°41' W 092°04'219.0
2017-Sep-17 08:30N 29°43' W 092°05'611.3
2017-Sep-17 08:01N 29°48' W 092°09'0 0.0
2017-Sep-17 07:31N 29°48' W 092°09'0 0.0
2017-Sep-17 07:01N 29°48' W 092°09'0 0.0
2017-Sep-17 06:31N 29°48' W 092°09'0 0.0
2017-Sep-17 06:01N 29°48' W 092°09'0 0.0
2017-Sep-17 05:30N 29°48' W 092°09'0 0.0
2017-Sep-17 04:59N 29°48' W 092°09'0 0.0
2017-Sep-17 04:31N 29°48' W 092°09'0 0.0
2017-Sep-17 04:01N 29°48' W 092°09'0 0.0
2017-Sep-17 03:31N 29°48' W 092°09'0 0.0
2017-Sep-17 03:01N 29°48' W 092°09'0 0.0
2017-Sep-17 02:30N 29°48' W 092°09'0 0.0
2017-Sep-17 02:01N 29°48' W 092°09'0 0.0
2017-Sep-17 01:31N 29°48' W 092°09'0 0.0
2017-Sep-17 01:01N 29°48' W 092°09'0 0.0
2017-Sep-17 00:31N 29°48' W 092°09'0 0.0
2017-Sep-17 00:01N 29°48' W 092°09'0 0.1
2017-Sep-16 23:31N 29°48' W 092°09'0 0.0
2017-Sep-16 23:01N 29°48' W 092°09'0 0.0
2017-Sep-16 22:31N 29°48' W 092°09'4 8.3
2017-Sep-16 22:00N 29°44' W 092°06'2 0.1
2017-Sep-15 17:30N 29°42' W 092°05'0 0.0
2017-Sep-15 03:40N 29°43' W 092°05'316.4
2017-Sep-15 03:30N 29°45' W 092°07'4 7.8
2017-Sep-15 03:00N 29°47' W 092°11'0 0.5
2017-Sep-15 02:30N 29°47' W 092°11'2 3.9
2017-Sep-15 02:00N 29°48' W 092°09'0 0.0
2017-Sep-15 01:30N 29°48' W 092°09'0 0.6
2017-Sep-15 01:00N 29°47' W 092°09'10 0.6
2017-Sep-14 08:44N 29°39' W 092°02'519.5
2017-Sep-14 08:30N 29°42' W 092°05'611.9
2017-Sep-14 08:00N 29°48' W 092°09'0 0.0
2017-Sep-14 07:30N 29°48' W 092°09'0 0.0
2017-Sep-14 07:00N 29°48' W 092°09'0 0.0
2017-Sep-14 06:30N 29°48' W 092°09'0 0.0
2017-Sep-14 06:00N 29°48' W 092°09'0 0.0
2017-Sep-14 05:30N 29°48' W 092°09'0 0.0
2017-Sep-14 05:00N 29°48' W 092°09'0 0.0
2017-Sep-14 04:30N 29°48' W 092°09'0 0.1
2017-Sep-14 04:00N 29°48' W 092°09'0 0.0
2017-Sep-14 03:30N 29°48' W 092°09'0 0.0
2017-Sep-14 03:00N 29°48' W 092°09'0 0.1
2017-Sep-14 02:31N 29°48' W 092°09'4 8.0
2017-Sep-14 02:00N 29°44' W 092°06'7 0.7
2017-Sep-13 16:58N 29°39' W 092°02'818.1
2017-Sep-13 16:30N 29°45' W 092°07'3 6.7
2017-Sep-13 16:00N 29°47' W 092°11'0 0.0
2017-Sep-13 15:30N 29°47' W 092°11'0 0.2
2017-Sep-13 15:00N 29°47' W 092°11'2 4.3
2017-Sep-13 14:30N 29°47' W 092°09'0 0.0
2017-Sep-13 14:00N 29°47' W 092°09'510.8
2017-Sep-13 13:31N 29°43' W 092°05'6 1.2
2017-Sep-13 08:30N 29°38' W 092°01'1019.6
2017-Sep-13 08:00N 29°46' W 092°08'1 2.9
2017-Sep-13 07:30N 29°48' W 092°09'0 0.0
2017-Sep-13 07:00N 29°48' W 092°09'0 0.0
2017-Sep-13 06:30N 29°48' W 092°09'0 0.0
2017-Sep-13 06:00N 29°48' W 092°09'0 0.0
2017-Sep-13 05:30N 29°48' W 092°09'0 0.0
2017-Sep-13 05:00N 29°48' W 092°09'0 0.0
2017-Sep-13 04:30N 29°48' W 092°09'0 0.0
2017-Sep-13 04:00N 29°48' W 092°09'0 0.0
2017-Sep-13 03:30N 29°48' W 092°09'0 0.0
2017-Sep-13 03:00N 29°48' W 092°09'0 0.0
2017-Sep-13 02:30N 29°48' W 092°09'0 0.0
2017-Sep-13 02:00N 29°48' W 092°09'0 0.1
2017-Sep-13 01:30N 29°48' W 092°09'511.1
2017-Sep-13 01:00N 29°43' W 092°05'8 0.2
2017-Sep-11 08:53N 29°37' W 092°00'819.3
2017-Sep-11 08:29N 29°43' W 092°05'511.4
2017-Sep-11 08:01N 29°48' W 092°09'0 0.0
2017-Sep-11 07:29N 29°48' W 092°09'0 0.0
2017-Sep-11 06:57N 29°48' W 092°09'0 0.0
2017-Sep-11 06:30N 29°48' W 092°09'0 0.0
2017-Sep-11 05:57N 29°48' W 092°09'0 0.0
2017-Sep-11 05:29N 29°48' W 092°09'0 0.0
2017-Sep-11 05:01N 29°48' W 092°09'0 0.0
2017-Sep-11 04:28N 29°48' W 092°09'0 0.0
2017-Sep-11 04:00N 29°48' W 092°09'0 0.0
2017-Sep-11 03:30N 29°48' W 092°09'0 0.0
2017-Sep-11 02:56N 29°48' W 092°09'0 0.0
2017-Sep-11 02:30N 29°48' W 092°09'0 0.0
2017-Sep-11 01:57N 29°48' W 092°09'0 0.0
2017-Sep-11 01:30N 29°48' W 092°09'0 0.0
2017-Sep-11 01:01N 29°48' W 092°09'0 0.0
2017-Sep-11 00:30N 29°48' W 092°09'0 0.0
2017-Sep-11 00:00N 29°48' W 092°09'1 1.0
2017-Sep-10 23:30N 29°47' W 092°09'  

Dump ship's entire track history